createdAt,value
2019-04-20T00:00:48.857Z,11.85
2019-04-20T00:03:14.271Z,11.83
2019-04-20T00:05:43.416Z,11.81
2019-04-20T00:08:16.701Z,11.82
2019-04-20T00:10:52.274Z,11.79
2019-04-20T00:13:27.487Z,11.71
2019-04-20T00:15:43.011Z,11.64
2019-04-20T00:18:12.188Z,11.61
2019-04-20T00:20:43.845Z,11.58
2019-04-20T00:23:27.806Z,11.58
2019-04-20T00:26:14.654Z,11.58
2019-04-20T00:28:55.876Z,11.58
2019-04-20T00:31:24.811Z,11.56
2019-04-20T00:33:48.198Z,11.53
2019-04-20T00:36:05.701Z,10.85
2019-04-20T00:38:40.821Z,11.45
2019-04-20T00:41:07.502Z,11.42
2019-04-20T00:43:37.299Z,11.38
2019-04-20T00:46:10.366Z,11.34
2019-04-20T00:48:46.214Z,11.31
2019-04-20T00:51:23.912Z,11.28
2019-04-20T00:53:39.712Z,11.24
2019-04-20T00:56:03.931Z,11.19
2019-04-20T00:58:41.010Z,11.13
2019-04-20T01:01:20.615Z,11.07
2019-04-20T01:03:46.186Z,11.02
2019-04-20T01:06:24.103Z,10.98
2019-04-20T01:08:40.122Z,10.92
2019-04-20T01:11:08.490Z,10.88
2019-04-20T01:13:42.086Z,10.87
2019-04-20T01:16:19.678Z,10.85
2019-04-20T01:18:36.925Z,10.81
2019-04-20T01:21:13.049Z,10.77
2019-04-20T01:23:44.924Z,10.78
2019-04-20T01:26:10.875Z,10.79
2019-04-20T01:28:51.207Z,10.76
2019-04-20T01:31:17.761Z,10.70
2019-04-20T01:33:47.022Z,10.68
2019-04-20T01:36:27.893Z,10.66
2019-04-20T01:38:55.445Z,10.66
2019-04-20T01:41:05.628Z,10.63
2019-04-20T01:43:33.820Z,10.61
2019-04-20T01:46:11.176Z,10.54
2019-04-20T01:48:36.609Z,10.49
2019-04-20T01:51:13.084Z,10.43
2019-04-20T01:53:56.791Z,10.38
2019-04-20T01:56:18.322Z,10.34
2019-04-20T01:58:52.149Z,10.30
2019-04-20T02:01:23.886Z,10.28
2019-04-20T02:03:53.788Z,10.26
2019-04-20T02:06:25.111Z,10.23
2019-04-20T02:08:58.401Z,10.18
2019-04-20T02:11:30.482Z,10.13
2019-04-20T02:13:57.309Z,10.09
2019-04-20T02:16:28.818Z,10.04
2019-04-20T02:19:10.902Z,9.98
2019-04-20T02:21:37.884Z,9.94
2019-04-20T02:23:58.018Z,9.89
2019-04-20T02:26:23.889Z,9.85
2019-04-20T02:29:19.007Z,9.80
2019-04-20T02:32:08.804Z,9.77
2019-04-20T02:42:24.657Z,9.61
2019-04-20T02:45:11.403Z,9.57
2019-04-20T02:47:28.033Z,9.53
2019-04-20T02:49:50.900Z,9.50
2019-04-20T02:52:21.104Z,9.48
2019-04-20T02:54:54.396Z,9.42
2019-04-20T02:57:22.460Z,9.37
2019-04-20T03:00:03.257Z,9.33
2019-04-20T03:02:04.171Z,9.28
2019-04-20T03:04:29.445Z,9.23
2019-04-20T03:07:06.272Z,9.20
2019-04-20T03:09:40.011Z,9.18
2019-04-20T03:12:10.610Z,9.13
2019-04-20T03:14:30.475Z,9.09
2019-04-20T03:17:10.372Z,9.05
2019-04-20T03:19:31.342Z,8.99
2019-04-20T03:22:08.825Z,8.94
2019-04-20T03:24:43.666Z,8.85
2019-04-20T03:27:07.490Z,8.79
2019-04-20T03:29:46.953Z,8.72
2019-04-20T03:32:40.329Z,8.61
2019-04-20T03:37:22.214Z,8.49
2019-04-20T03:39:40.559Z,8.47
2019-04-20T03:41:56.724Z,8.46
2019-04-20T03:44:28.747Z,8.44
2019-04-20T03:46:59.697Z,8.42
2019-04-20T03:49:48.343Z,8.39
2019-04-20T03:52:28.361Z,8.37
2019-04-20T03:54:55.370Z,8.39
2019-04-20T03:57:47.027Z,8.37
2019-04-20T04:00:31.884Z,8.25
2019-04-20T04:05:44.624Z,8.32
2019-04-20T04:08:12.239Z,8.27
2019-04-20T04:10:52.439Z,8.25
2019-04-20T04:13:07.252Z,8.21
2019-04-20T04:15:42.711Z,8.17
2019-04-20T04:18:13.868Z,8.15
2019-04-20T04:20:44.308Z,8.15
2019-04-20T04:23:22.043Z,8.12
2019-04-20T04:25:55.908Z,7.55
2019-04-20T04:28:21.293Z,8.13
2019-04-20T04:30:59.953Z,8.15
2019-04-20T04:33:45.717Z,8.15
2019-04-20T04:35:53.781Z,8.17
2019-04-20T04:38:31.708Z,8.21
2019-04-20T04:41:06.440Z,8.22
2019-04-20T04:43:29.458Z,8.25
2019-04-20T04:45:36.992Z,8.29
2019-04-20T04:48:06.770Z,8.69
2019-04-20T04:50:44.565Z,9.63
2019-04-20T04:56:35.514Z,11.35
2019-04-20T04:59:04.383Z,12.33
2019-04-20T05:01:35.524Z,12.98
2019-04-20T05:04:25.149Z,13.55
2019-04-20T05:06:48.129Z,14.08
2019-04-20T05:09:05.842Z,14.55
2019-04-20T05:11:34.970Z,15.03
2019-04-20T05:14:07.462Z,15.40
2019-04-20T05:16:49.980Z,15.28
2019-04-20T05:19:23.588Z,14.25
2019-04-20T05:22:01.391Z,14.54
2019-04-20T05:24:25.611Z,15.20
2019-04-20T05:27:01.954Z,15.77
2019-04-20T05:29:17.593Z,16.19
2019-04-20T05:31:49.284Z,16.41
2019-04-20T05:34:33.264Z,16.58
2019-04-20T05:37:06.533Z,16.72
2019-04-20T05:39:32.951Z,16.72
2019-04-20T05:41:56.261Z,16.95
2019-04-20T05:44:25.518Z,17.08
2019-04-20T05:47:05.500Z,17.13
2019-04-20T05:49:30.388Z,17.36
2019-04-20T05:52:02.602Z,17.42
2019-04-20T05:57:05.548Z,17.51
2019-04-20T05:59:37.524Z,17.47
2019-04-20T06:02:06.128Z,17.42
2019-04-20T06:04:49.109Z,17.36
2019-04-20T06:07:02.416Z,17.26
2019-04-20T06:09:34.209Z,16.87
2019-04-20T06:12:12.955Z,16.40
2019-04-20T06:14:33.179Z,15.90
2019-04-20T06:17:11.350Z,15.52
2019-04-20T06:19:53.162Z,15.27
2019-04-20T06:22:24.693Z,14.97
2019-04-20T06:25:19.178Z,14.55
2019-04-20T06:27:35.287Z,14.20
2019-04-20T06:29:59.261Z,13.99
2019-04-20T06:33:16.100Z,13.08
2019-04-20T06:36:05.992Z,13.76
2019-04-20T06:38:26.653Z,13.97
2019-04-20T06:43:11.341Z,13.97
2019-04-20T06:45:51.355Z,13.92
2019-04-20T06:48:13.511Z,14.01
2019-04-20T06:50:41.512Z,14.17
2019-04-20T06:53:28.576Z,14.37
2019-04-20T06:56:01.136Z,14.56
2019-04-20T06:58:42.043Z,14.76
2019-04-20T07:00:58.324Z,14.88
2019-04-20T07:03:40.932Z,14.96
2019-04-20T07:06:06.445Z,15.10
2019-04-20T07:08:41.080Z,15.15
2019-04-20T07:11:02.151Z,15.22
2019-04-20T07:13:19.310Z,15.33
2019-04-20T07:15:50.819Z,15.25
2019-04-20T07:18:30.612Z,15.08
2019-04-20T07:21:25.160Z,15.07
2019-04-20T07:23:49.757Z,15.16
2019-04-20T07:26:22.286Z,15.31
2019-04-20T07:28:54.408Z,15.46
2019-04-20T07:31:17.246Z,15.53
2019-04-20T07:33:48.001Z,15.60
2019-04-20T07:36:22.567Z,15.66
2019-04-20T07:38:46.651Z,15.65
2019-04-20T07:41:23.399Z,15.57
2019-04-20T07:43:57.483Z,15.40
2019-04-20T07:46:37.650Z,15.18
2019-04-20T07:48:42.285Z,15.13
2019-04-20T07:51:06.588Z,15.14
2019-04-20T07:53:40.296Z,15.24
2019-04-20T07:56:18.560Z,15.38
2019-04-20T07:58:35.791Z,15.46
2019-04-20T08:01:24.221Z,15.47
2019-04-20T08:03:52.917Z,15.45
2019-04-20T08:06:26.003Z,15.49
2019-04-20T08:09:05.327Z,15.53
2019-04-20T08:11:41.339Z,15.52
2019-04-20T08:14:14.764Z,15.56
2019-04-20T08:17:09.875Z,15.68
2019-04-20T08:19:04.134Z,15.83
2019-04-20T08:21:40.585Z,15.94
2019-04-20T08:24:07.410Z,16.06
2019-04-20T08:26:26.916Z,16.19
2019-04-20T08:29:05.163Z,16.35
2019-04-20T08:32:08.500Z,16.51
2019-04-20T08:34:53.789Z,16.71
2019-04-20T08:37:13.513Z,16.90
2019-04-20T08:39:51.111Z,17.02
2019-04-20T08:42:19.809Z,17.13
2019-04-20T08:47:27.441Z,17.33
2019-04-20T08:50:17.271Z,17.38
2019-04-20T08:55:10.629Z,17.51
2019-04-20T08:57:20.477Z,17.57
2019-04-20T08:59:51.060Z,17.72
2019-04-20T09:02:20.306Z,17.85
2019-04-20T09:04:54.065Z,17.85
2019-04-20T09:07:23.243Z,17.69
2019-04-20T09:10:10.071Z,17.63
2019-04-20T09:12:36.915Z,17.63
2019-04-20T09:14:48.902Z,17.73
2019-04-20T09:17:32.483Z,17.73
2019-04-20T09:20:06.324Z,17.80
2019-04-20T09:22:42.861Z,18.00
2019-04-20T09:25:36.535Z,18.04
2019-04-20T09:27:40.800Z,18.02
2019-04-20T09:30:16.043Z,18.12
2019-04-20T09:32:48.518Z,18.19
2019-04-20T09:35:28.001Z,18.07
2019-04-20T09:38:12.188Z,17.98
2019-04-20T09:40:40.262Z,17.96
2019-04-20T09:43:00.265Z,17.99
2019-04-20T09:45:39.936Z,18.02
2019-04-20T09:48:11.635Z,18.03
2019-04-20T09:50:55.020Z,18.11
2019-04-20T09:53:19.782Z,18.10
2019-04-20T09:55:50.629Z,18.09
2019-04-20T09:58:15.395Z,18.13
2019-04-20T10:00:53.895Z,18.11
2019-04-20T10:03:12.944Z,18.09
2019-04-20T10:05:41.295Z,18.07
2019-04-20T10:08:09.996Z,18.08
2019-04-20T10:10:42.692Z,18.11
2019-04-20T10:13:09.371Z,18.31
2019-04-20T10:15:37.623Z,18.45
2019-04-20T10:18:05.858Z,18.61
2019-04-20T10:20:36.893Z,18.76
2019-04-20T10:23:04.644Z,18.84
2019-04-20T10:25:32.986Z,18.94
2019-04-20T10:28:01.424Z,19.09
2019-04-20T10:30:30.603Z,19.24
2019-04-20T10:32:59.512Z,19.37
2019-04-20T10:35:27.909Z,19.37
2019-04-20T10:38:03.505Z,19.47
2019-04-20T10:40:43.971Z,19.42
2019-04-20T10:43:03.180Z,19.37
2019-04-20T10:45:32.976Z,19.37
2019-04-20T10:48:01.611Z,19.42
2019-04-20T10:50:31.247Z,19.47
2019-04-20T10:52:59.781Z,19.32
2019-04-20T10:55:29.054Z,19.26
2019-04-20T10:57:57.769Z,19.31
2019-04-20T11:00:41.790Z,19.36
2019-04-20T11:03:10.718Z,19.48
2019-04-20T11:05:40.545Z,19.51
2019-04-20T11:08:10.551Z,19.59
2019-04-20T11:10:50.851Z,19.73
2019-04-20T11:13:11.728Z,19.85
2019-04-20T11:15:40.365Z,19.91
2019-04-20T11:18:09.508Z,19.91
2019-04-20T11:20:39.343Z,19.89
2019-04-20T11:23:08.488Z,19.97
2019-04-20T11:25:37.980Z,20.07
2019-04-20T11:28:06.267Z,20.17
2019-04-20T11:30:36.166Z,20.32
2019-04-20T11:33:04.498Z,20.37
2019-04-20T11:35:37.590Z,20.30
2019-04-20T11:38:02.972Z,20.23
2019-04-20T11:40:31.262Z,20.15
2019-04-20T11:42:59.639Z,20.12
2019-04-20T11:45:28.802Z,20.09
2019-04-20T11:47:57.827Z,20.08
2019-04-20T11:50:27.490Z,20.08
2019-04-20T11:52:57.195Z,19.98
2019-04-20T11:55:26.608Z,19.94
2019-04-20T11:57:56.218Z,19.95
2019-04-20T12:00:42.305Z,19.91
2019-04-20T12:03:16.085Z,19.82
2019-04-20T12:05:44.541Z,19.76
2019-04-20T12:08:09.406Z,19.71
2019-04-20T12:10:39.157Z,19.79
2019-04-20T12:13:07.923Z,19.79
2019-04-20T12:15:38.615Z,19.79
2019-04-20T12:18:07.524Z,19.79
2019-04-20T12:20:36.631Z,19.65
2019-04-20T12:23:06.329Z,19.63
2019-04-20T12:25:36.698Z,19.56
2019-04-20T12:28:05.324Z,19.71
2019-04-20T12:30:33.596Z,19.68
2019-04-20T12:33:03.815Z,19.76
2019-04-20T12:35:32.093Z,19.84
2019-04-20T12:38:01.000Z,19.88
2019-04-20T12:40:30.161Z,19.96
2019-04-20T12:42:59.236Z,19.95
2019-04-20T12:45:27.473Z,19.94
2019-04-20T12:47:55.742Z,19.91
2019-04-20T12:50:23.946Z,19.89
2019-04-20T12:52:52.575Z,19.94
2019-04-20T12:55:20.953Z,20.02
2019-04-20T12:57:50.300Z,20.12
2019-04-20T13:00:19.482Z,20.18
2019-04-20T13:02:49.407Z,20.14
2019-04-20T13:05:17.760Z,20.11
2019-04-20T13:07:49.267Z,20.00
2019-04-20T13:10:15.934Z,19.96
2019-04-20T13:12:52.299Z,19.98
2019-04-20T13:15:36.439Z,19.96
2019-04-20T13:18:05.509Z,19.92
2019-04-20T13:20:34.107Z,19.93
2019-04-20T13:23:03.912Z,20.04
2019-04-20T13:25:32.888Z,20.10
2019-04-20T13:28:01.279Z,20.06
2019-04-20T13:30:30.076Z,19.99
2019-04-20T13:32:59.420Z,19.90
2019-04-20T13:35:29.839Z,19.84
2019-04-20T13:37:58.742Z,19.76
2019-04-20T13:40:27.988Z,19.80
2019-04-20T13:42:56.244Z,19.76
2019-04-20T13:45:24.759Z,19.73
2019-04-20T13:47:53.051Z,19.72
2019-04-20T13:50:22.120Z,19.77
2019-04-20T13:52:51.481Z,19.79
2019-04-20T13:55:23.418Z,19.78
2019-04-20T13:57:52.017Z,19.73
2019-04-20T14:00:34.559Z,19.70
2019-04-20T14:03:14.471Z,19.69
2019-04-20T14:05:43.494Z,19.65
2019-04-20T14:08:13.484Z,19.64
2019-04-20T14:10:42.416Z,19.63
2019-04-20T14:13:16.544Z,19.62
2019-04-20T14:15:40.893Z,19.51
2019-04-20T14:18:09.247Z,19.45
2019-04-20T14:20:38.169Z,19.39
2019-04-20T14:23:07.345Z,19.36
2019-04-20T14:25:36.737Z,19.27
2019-04-20T14:28:05.027Z,19.21
2019-04-20T14:30:33.413Z,19.21
2019-04-20T14:33:02.916Z,19.23
2019-04-20T14:35:32.644Z,19.24
2019-04-20T14:38:01.689Z,19.25
2019-04-20T14:40:30.355Z,19.19
2019-04-20T14:43:00.166Z,19.15
2019-04-20T14:45:28.891Z,19.16
2019-04-20T14:47:57.510Z,19.18
2019-04-20T14:50:25.810Z,19.13
2019-04-20T14:52:54.049Z,19.03
2019-04-20T14:55:22.916Z,18.96
2019-04-20T14:57:53.208Z,18.91
2019-04-20T15:00:35.452Z,18.84
2019-04-20T15:03:21.951Z,18.80
2019-04-20T15:05:50.921Z,18.74
2019-04-20T15:08:20.881Z,18.78
2019-04-20T15:10:49.136Z,18.78
2019-04-20T15:13:17.316Z,18.69
2019-04-20T15:15:46.422Z,18.62
2019-04-20T15:18:17.616Z,18.60
2019-04-20T15:20:48.014Z,18.56
2019-04-20T15:23:21.566Z,18.52
2019-04-20T15:25:50.614Z,18.47
2019-04-20T15:28:18.974Z,18.41
2019-04-20T15:30:47.960Z,18.34
2019-04-20T15:33:16.979Z,18.31
2019-04-20T15:35:46.142Z,18.31
2019-04-20T15:38:15.383Z,18.32
2019-04-20T15:40:44.810Z,18.33
2019-04-20T15:43:17.426Z,18.33
2019-04-20T15:45:43.488Z,18.30
2019-04-20T15:48:12.179Z,18.25
2019-04-20T15:50:41.362Z,18.19
2019-04-20T15:53:09.577Z,18.15
2019-04-20T15:55:40.228Z,18.10
2019-04-20T15:58:08.405Z,18.07
2019-04-20T16:00:38.028Z,18.07
2019-04-20T16:03:09.527Z,18.04
2019-04-20T16:05:56.685Z,18.00
2019-04-20T16:08:36.726Z,17.95
2019-04-20T16:11:06.863Z,17.85
2019-04-20T16:13:39.609Z,17.78
2019-04-20T16:16:05.961Z,17.71
2019-04-20T16:18:34.962Z,17.66
2019-04-20T16:21:07.985Z,17.65
2019-04-20T16:23:35.096Z,17.61
2019-04-20T16:26:05.923Z,17.58
2019-04-20T16:28:35.387Z,17.54
2019-04-20T16:31:07.882Z,17.51
2019-04-20T16:33:34.530Z,17.49
2019-04-20T16:36:04.699Z,17.48
2019-04-20T16:38:33.135Z,17.47
2019-04-20T16:41:02.189Z,17.42
2019-04-20T16:43:37.366Z,17.37
2019-04-20T16:46:01.390Z,17.35
2019-04-20T16:48:30.391Z,17.32
2019-04-20T16:50:58.972Z,16.76
2019-04-20T16:53:27.179Z,17.24
2019-04-20T16:55:56.774Z,17.19
2019-04-20T16:58:26.032Z,17.14
2019-04-20T17:00:55.899Z,17.12
2019-04-20T17:03:37.292Z,17.08
2019-04-20T17:05:54.353Z,17.02
2019-04-20T17:08:22.930Z,16.94
2019-04-20T17:10:51.720Z,16.89
2019-04-20T17:13:32.958Z,16.88
2019-04-20T17:15:49.998Z,16.81
2019-04-20T17:18:19.315Z,16.72
2019-04-20T17:20:48.402Z,16.68
2019-04-20T17:23:17.725Z,16.66
2019-04-20T17:25:46.182Z,16.59
2019-04-20T17:28:33.096Z,16.56
2019-04-20T17:31:09.261Z,16.53
2019-04-20T17:33:58.151Z,16.46
2019-04-20T17:36:21.461Z,16.40
2019-04-20T17:38:52.548Z,16.34
2019-04-20T17:41:38.805Z,16.29
2019-04-20T17:44:05.481Z,16.23
2019-04-20T17:46:28.690Z,16.16
2019-04-20T17:49:04.299Z,16.08
2019-04-20T17:51:34.217Z,16.01
2019-04-20T17:53:52.856Z,15.93
2019-04-20T17:56:17.438Z,15.85
2019-04-20T17:58:46.122Z,15.76
2019-04-20T18:01:49.875Z,15.67
2019-04-20T18:04:44.335Z,15.59
2019-04-20T18:06:50.464Z,15.51
2019-04-20T18:09:35.899Z,15.44
2019-04-20T18:11:46.666Z,15.34
2019-04-20T18:14:28.632Z,15.24
2019-04-20T18:17:04.624Z,15.16
2019-04-20T18:19:28.299Z,15.08
2019-04-20T18:22:05.798Z,15.04
2019-04-20T18:24:56.441Z,14.96
2019-04-20T18:27:27.557Z,14.94
2019-04-20T18:29:52.596Z,14.90
2019-04-20T18:32:20.926Z,14.81
2019-04-20T18:34:55.495Z,14.69
2019-04-20T18:37:22.078Z,14.60
2019-04-20T18:39:57.392Z,14.54
2019-04-20T18:42:30.690Z,14.51
2019-04-20T18:45:10.475Z,14.46
2019-04-20T18:47:39.422Z,14.39
2019-04-20T18:50:04.218Z,14.33
2019-04-20T18:52:23.990Z,14.29
2019-04-20T18:54:55.442Z,14.19
2019-04-20T18:57:27.179Z,14.13
2019-04-20T18:59:55.288Z,14.04
2019-04-20T19:02:29.394Z,13.96
2019-04-20T19:04:58.126Z,13.87
2019-04-20T19:07:25.859Z,13.79
2019-04-20T19:10:02.575Z,13.72
2019-04-20T19:12:32.547Z,13.69
2019-04-20T19:15:31.742Z,13.66
2019-04-20T19:18:00.927Z,13.64
2019-04-20T19:20:25.002Z,13.61
2019-04-20T19:22:52.714Z,13.55
2019-04-20T19:25:26.124Z,13.50
2019-04-20T19:27:55.643Z,13.46
2019-04-20T19:30:32.530Z,13.41
2019-04-20T19:33:13.110Z,13.38
2019-04-20T19:35:34.046Z,13.33
2019-04-20T19:38:03.357Z,13.28
2019-04-20T19:40:34.737Z,13.24
2019-04-20T19:43:02.381Z,13.16
2019-04-20T19:46:14.103Z,13.09
2019-04-20T19:48:09.416Z,13.04
2019-04-20T19:50:53.118Z,12.99
2019-04-20T19:53:16.576Z,12.92
2019-04-20T19:55:39.693Z,12.85
2019-04-20T19:58:10.678Z,12.80
2019-04-20T20:00:51.209Z,12.76
2019-04-20T20:03:17.748Z,12.71
2019-04-20T20:05:48.319Z,12.62
2019-04-20T20:08:20.967Z,12.56
2019-04-20T20:10:46.346Z,12.49
2019-04-20T20:13:14.959Z,12.45
2019-04-20T20:15:45.095Z,12.40
2019-04-20T20:18:30.401Z,12.36
2019-04-20T20:20:59.649Z,12.23
2019-04-20T20:23:14.269Z,12.23
2019-04-20T20:25:46.478Z,12.17
2019-04-20T20:28:24.123Z,12.12
2019-04-20T20:30:56.815Z,12.08
2019-04-20T20:33:32.613Z,12.04
2019-04-20T20:35:52.905Z,11.98
2019-04-20T20:38:21.858Z,11.95
2019-04-20T20:40:54.918Z,11.92
2019-04-20T20:43:24.218Z,11.87
2019-04-20T20:45:52.739Z,11.83
2019-04-20T20:48:32.499Z,11.77
2019-04-20T20:50:57.310Z,11.72
2019-04-20T20:53:21.839Z,11.66
2019-04-20T20:55:47.674Z,11.60
2019-04-20T20:58:19.210Z,11.54
2019-04-20T21:00:54.452Z,11.53
2019-04-20T21:03:22.767Z,11.51
2019-04-20T21:05:45.046Z,11.50
2019-04-20T21:08:13.593Z,11.46
2019-04-20T21:10:43.909Z,11.41
2019-04-20T21:13:12.663Z,11.35
2019-04-20T21:15:45.373Z,11.27
2019-04-20T21:18:33.301Z,11.23
2019-04-20T21:21:00.608Z,11.17
2019-04-20T21:23:28.509Z,11.14
2019-04-20T21:26:03.273Z,11.15
2019-04-20T21:28:35.722Z,11.16
2019-04-20T21:31:10.553Z,11.11
2019-04-20T21:33:34.891Z,11.06
2019-04-20T21:36:02.832Z,11.03
2019-04-20T21:38:35.868Z,10.99
2019-04-20T21:41:05.311Z,10.94
2019-04-20T21:43:36.327Z,10.92
2019-04-20T21:46:04.874Z,10.87
2019-04-20T21:48:47.672Z,10.82
2019-04-20T21:51:19.155Z,10.76
2019-04-20T21:53:35.016Z,10.70
2019-04-20T21:56:02.034Z,10.69
2019-04-20T21:58:35.453Z,10.70
2019-04-20T22:01:12.133Z,10.67
2019-04-20T22:03:32.172Z,10.61
2019-04-20T22:06:05.042Z,10.57
2019-04-20T22:08:34.734Z,10.51
2019-04-20T22:11:03.971Z,10.43
2019-04-20T22:13:37.703Z,10.40
2019-04-20T22:16:07.314Z,10.40
2019-04-20T22:18:47.373Z,10.36
2019-04-20T22:21:13.113Z,10.31
2019-04-20T22:23:47.614Z,10.26
2019-04-20T22:26:16.322Z,10.25
2019-04-20T22:28:33.843Z,10.22
2019-04-20T22:31:02.632Z,10.17
2019-04-20T22:33:38.072Z,10.14
2019-04-20T22:36:07.793Z,10.12
2019-04-20T22:38:57.780Z,10.10
2019-04-20T22:41:25.764Z,10.08
2019-04-20T22:43:54.693Z,10.08
2019-04-20T22:46:28.111Z,10.07
2019-04-20T22:49:14.363Z,10.06
2019-04-20T22:51:40.216Z,10.03
2019-04-20T22:54:08.560Z,10.01
2019-04-20T22:56:39.468Z,9.98
2019-04-20T22:59:03.702Z,9.94
2019-04-20T23:01:33.601Z,9.93
2019-04-20T23:03:54.797Z,9.89
2019-04-20T23:06:25.345Z,9.84
2019-04-20T23:08:59.541Z,9.79
2019-04-20T23:11:28.498Z,9.78
2019-04-20T23:13:54.322Z,9.75
2019-04-20T23:16:23.015Z,9.73
2019-04-20T23:18:51.963Z,9.73
2019-04-20T23:21:21.599Z,9.73
2019-04-20T23:23:53.764Z,9.71
2019-04-20T23:26:27.846Z,9.68
2019-04-20T23:28:54.083Z,9.64
2019-04-20T23:31:23.158Z,9.60
2019-04-20T23:33:49.966Z,9.57
2019-04-20T23:36:28.580Z,9.52
2019-04-20T23:38:53.827Z,9.48
2019-04-20T23:41:19.678Z,9.44
2019-04-20T23:43:54.898Z,9.42
2019-04-20T23:46:27.608Z,9.40
2019-04-20T23:49:18.861Z,9.39
2019-04-20T23:52:03.619Z,9.35
2019-04-20T23:54:18.685Z,9.33
2019-04-20T23:56:41.749Z,9.34
2019-04-20T23:59:10.678Z,9.33
